sensor_id;sensor_type;location;lat;lon;timestamp;P1;durP1;ratioP1;P2;durP2;ratioP2
46090;SDS011;31826;53.572;10.170;2023-03-01T00:01:28;13.95;;;5.88;;
46090;SDS011;31826;53.572;10.170;2023-03-01T00:03:56;13.10;;;6.32;;
46090;SDS011;31826;53.572;10.170;2023-03-01T00:06:23;14.90;;;6.05;;
46090;SDS011;31826;53.572;10.170;2023-03-01T00:08:49;12.10;;;5.88;;
46090;SDS011;31826;53.572;10.170;2023-03-01T00:11:17;14.45;;;6.03;;
46090;SDS011;31826;53.572;10.170;2023-03-01T00:13:45;14.05;;;5.78;;
46090;SDS011;31826;53.572;10.170;2023-03-01T00:16:14;13.40;;;5.80;;
46090;SDS011;31826;53.572;10.170;2023-03-01T00:18:42;13.35;;;6.07;;
46090;SDS011;31826;53.572;10.170;2023-03-01T00:21:07;13.60;;;6.17;;
46090;SDS011;31826;53.572;10.170;2023-03-01T00:23:33;13.37;;;6.17;;
46090;SDS011;31826;53.572;10.170;2023-03-01T00:25:59;14.40;;;6.20;;
46090;SDS011;31826;53.572;10.170;2023-03-01T00:28:25;12.55;;;5.20;;
46090;SDS011;31826;53.572;10.170;2023-03-01T00:30:51;12.63;;;5.87;;
46090;SDS011;31826;53.572;10.170;2023-03-01T00:33:17;12.03;;;5.40;;
46090;SDS011;31826;53.572;10.170;2023-03-01T00:35:43;13.93;;;6.22;;
46090;SDS011;31826;53.572;10.170;2023-03-01T00:38:09;12.02;;;5.88;;
46090;SDS011;31826;53.572;10.170;2023-03-01T00:40:35;11.80;;;5.57;;
46090;SDS011;31826;53.572;10.170;2023-03-01T00:43:02;14.25;;;6.10;;
46090;SDS011;31826;53.572;10.170;2023-03-01T00:45:29;12.93;;;5.88;;
46090;SDS011;31826;53.572;10.170;2023-03-01T00:47:56;13.13;;;5.82;;
46090;SDS011;31826;53.572;10.170;2023-03-01T00:50:22;12.82;;;5.55;;
46090;SDS011;31826;53.572;10.170;2023-03-01T00:52:52;12.40;;;5.68;;
46090;SDS011;31826;53.572;10.170;2023-03-01T00:55:19;14.00;;;5.60;;
46090;SDS011;31826;53.572;10.170;2023-03-01T00:57:45;15.77;;;5.90;;
46090;SDS011;31826;53.572;10.170;2023-03-01T01:00:11;13.53;;;5.53;;
46090;SDS011;31826;53.572;10.170;2023-03-01T01:02:37;14.55;;;6.47;;
46090;SDS011;31826;53.572;10.170;2023-03-01T01:05:03;13.55;;;6.15;;
46090;SDS011;31826;53.572;10.170;2023-03-01T01:07:29;13.50;;;6.43;;
46090;SDS011;31826;53.572;10.170;2023-03-01T01:09:55;13.63;;;6.47;;
46090;SDS011;31826;53.572;10.170;2023-03-01T01:12:21;12.60;;;6.17;;
46090;SDS011;31826;53.572;10.170;2023-03-01T01:14:47;13.07;;;5.80;;
46090;SDS011;31826;53.572;10.170;2023-03-01T01:17:12;12.43;;;5.47;;
46090;SDS011;31826;53.572;10.170;2023-03-01T01:19:38;15.27;;;5.80;;
46090;SDS011;31826;53.572;10.170;2023-03-01T01:22:04;13.47;;;5.83;;
46090;SDS011;31826;53.572;10.170;2023-03-01T01:24:30;12.87;;;5.97;;
46090;SDS011;31826;53.572;10.170;2023-03-01T01:26:55;11.43;;;5.33;;
46090;SDS011;31826;53.572;10.170;2023-03-01T01:29:21;13.23;;;5.78;;
46090;SDS011;31826;53.572;10.170;2023-03-01T01:31:47;14.68;;;6.03;;
46090;SDS011;31826;53.572;10.170;2023-03-01T01:34:18;13.18;;;6.03;;
46090;SDS011;31826;53.572;10.170;2023-03-01T01:36:49;13.93;;;6.07;;
46090;SDS011;31826;53.572;10.170;2023-03-01T01:39:18;14.10;;;5.63;;
46090;SDS011;31826;53.572;10.170;2023-03-01T01:41:44;13.93;;;5.47;;
46090;SDS011;31826;53.572;10.170;2023-03-01T01:44:18;13.85;;;5.78;;
46090;SDS011;31826;53.572;10.170;2023-03-01T01:46:50;13.77;;;5.83;;
46090;SDS011;31826;53.572;10.170;2023-03-01T01:49:25;12.83;;;6.10;;
46090;SDS011;31826;53.572;10.170;2023-03-01T01:51:57;22.45;;;6.68;;
46090;SDS011;31826;53.572;10.170;2023-03-01T01:54:44;15.75;;;6.97;;
46090;SDS011;31826;53.572;10.170;2023-03-01T01:57:22;16.60;;;7.72;;
46090;SDS011;31826;53.572;10.170;2023-03-01T01:59:53;16.88;;;7.18;;
46090;SDS011;31826;53.572;10.170;2023-03-01T02:02:22;17.83;;;7.60;;
46090;SDS011;31826;53.572;10.170;2023-03-01T02:04:49;14.13;;;6.80;;
46090;SDS011;31826;53.572;10.170;2023-03-01T02:07:19;16.43;;;6.97;;
46090;SDS011;31826;53.572;10.170;2023-03-01T02:09:48;16.20;;;7.10;;
46090;SDS011;31826;53.572;10.170;2023-03-01T02:12:16;16.05;;;7.25;;
46090;SDS011;31826;53.572;10.170;2023-03-01T02:14:44;16.02;;;6.80;;
46090;SDS011;31826;53.572;10.170;2023-03-01T02:17:11;15.57;;;7.00;;
46090;SDS011;31826;53.572;10.170;2023-03-01T02:19:45;16.58;;;6.93;;
46090;SDS011;31826;53.572;10.170;2023-03-01T02:22:27;13.63;;;6.03;;
46090;SDS011;31826;53.572;10.170;2023-03-01T02:27:57;13.93;;;6.43;;
46090;SDS011;31826;53.572;10.170;2023-03-01T02:30:35;14.18;;;6.45;;
46090;SDS011;31826;53.572;10.170;2023-03-01T02:33:02;17.40;;;6.50;;
46090;SDS011;31826;53.572;10.170;2023-03-01T02:35:30;14.82;;;6.90;;
46090;SDS011;31826;53.572;10.170;2023-03-01T02:37:58;15.38;;;6.50;;
46090;SDS011;31826;53.572;10.170;2023-03-01T02:40:27;15.18;;;6.60;;
46090;SDS011;31826;53.572;10.170;2023-03-01T02:42:56;16.02;;;7.10;;
46090;SDS011;31826;53.572;10.170;2023-03-01T02:45:23;16.58;;;6.47;;
46090;SDS011;31826;53.572;10.170;2023-03-01T02:47:53;14.80;;;6.68;;
46090;SDS011;31826;53.572;10.170;2023-03-01T02:53:23;12.65;;;6.30;;
46090;SDS011;31826;53.572;10.170;2023-03-01T02:56:06;15.00;;;6.55;;
46090;SDS011;31826;53.572;10.170;2023-03-01T02:58:38;13.30;;;6.13;;
46090;SDS011;31826;53.572;10.170;2023-03-01T03:01:11;17.63;;;6.73;;
46090;SDS011;31826;53.572;10.170;2023-03-01T03:03:39;13.27;;;6.65;;
46090;SDS011;31826;53.572;10.170;2023-03-01T03:06:06;17.83;;;6.73;;
46090;SDS011;31826;53.572;10.170;2023-03-01T03:08:31;14.82;;;6.85;;
46090;SDS011;31826;53.572;10.170;2023-03-01T03:10:57;15.55;;;6.22;;
46090;SDS011;31826;53.572;10.170;2023-03-01T03:13:23;15.52;;;6.82;;
46090;SDS011;31826;53.572;10.170;2023-03-01T03:15:53;17.63;;;6.72;;
46090;SDS011;31826;53.572;10.170;2023-03-01T03:18:20;14.67;;;6.43;;
46090;SDS011;31826;53.572;10.170;2023-03-01T03:20:47;15.10;;;6.78;;
46090;SDS011;31826;53.572;10.170;2023-03-01T03:23:17;19.17;;;6.70;;
46090;SDS011;31826;53.572;10.170;2023-03-01T03:25:50;18.50;;;7.15;;
46090;SDS011;31826;53.572;10.170;2023-03-01T03:28:17;15.70;;;6.75;;
46090;SDS011;31826;53.572;10.170;2023-03-01T03:30:43;16.95;;;7.15;;
46090;SDS011;31826;53.572;10.170;2023-03-01T03:33:10;14.90;;;7.20;;
46090;SDS011;31826;53.572;10.170;2023-03-01T03:35:41;14.40;;;6.35;;
46090;SDS011;31826;53.572;10.170;2023-03-01T03:38:13;13.07;;;6.43;;
46090;SDS011;31826;53.572;10.170;2023-03-01T03:40:47;14.95;;;6.18;;
46090;SDS011;31826;53.572;10.170;2023-03-01T03:43:17;13.40;;;6.37;;
46090;SDS011;31826;53.572;10.170;2023-03-01T03:45:45;16.25;;;6.63;;
46090;SDS011;31826;53.572;10.170;2023-03-01T03:48:12;15.03;;;6.90;;
46090;SDS011;31826;53.572;10.170;2023-03-01T03:50:38;14.70;;;6.05;;
46090;SDS011;31826;53.572;10.170;2023-03-01T03:53:06;14.25;;;6.63;;
46090;SDS011;31826;53.572;10.170;2023-03-01T03:55:36;14.02;;;6.25;;
46090;SDS011;31826;53.572;10.170;2023-03-01T03:58:04;14.55;;;5.82;;
46090;SDS011;31826;53.572;10.170;2023-03-01T04:00:32;19.70;;;6.63;;
46090;SDS011;31826;53.572;10.170;2023-03-01T04:02:59;16.98;;;6.45;;
46090;SDS011;31826;53.572;10.170;2023-03-01T04:05:25;15.65;;;6.57;;
46090;SDS011;31826;53.572;10.170;2023-03-01T04:07:52;15.32;;;6.38;;
46090;SDS011;31826;53.572;10.170;2023-03-01T04:10:26;13.90;;;6.50;;
46090;SDS011;31826;53.572;10.170;2023-03-01T04:12:53;14.23;;;6.63;;
46090;SDS011;31826;53.572;10.170;2023-03-01T04:15:21;15.00;;;6.25;;
46090;SDS011;31826;53.572;10.170;2023-03-01T04:17:49;14.55;;;5.88;;
46090;SDS011;31826;53.572;10.170;2023-03-01T04:20:17;15.32;;;6.15;;
46090;SDS011;31826;53.572;10.170;2023-03-01T04:22:52;15.73;;;6.38;;
46090;SDS011;31826;53.572;10.170;2023-03-01T04:25:22;13.13;;;6.03;;
46090;SDS011;31826;53.572;10.170;2023-03-01T04:27:49;13.95;;;5.80;;
46090;SDS011;31826;53.572;10.170;2023-03-01T04:30:14;17.17;;;7.40;;
46090;SDS011;31826;53.572;10.170;2023-03-01T04:32:40;14.60;;;6.30;;
46090;SDS011;31826;53.572;10.170;2023-03-01T04:35:06;14.73;;;6.43;;
46090;SDS011;31826;53.572;10.170;2023-03-01T04:37:34;13.85;;;6.25;;
46090;SDS011;31826;53.572;10.170;2023-03-01T04:40:00;14.80;;;6.40;;
46090;SDS011;31826;53.572;10.170;2023-03-01T04:42:40;12.27;;;5.40;;
46090;SDS011;31826;53.572;10.170;2023-03-01T04:45:07;13.63;;;6.38;;
46090;SDS011;31826;53.572;10.170;2023-03-01T04:47:47;13.27;;;6.32;;
46090;SDS011;31826;53.572;10.170;2023-03-01T04:50:14;14.77;;;6.50;;
46090;SDS011;31826;53.572;10.170;2023-03-01T04:52:41;14.13;;;5.78;;
46090;SDS011;31826;53.572;10.170;2023-03-01T04:55:08;14.07;;;6.18;;
46090;SDS011;31826;53.572;10.170;2023-03-01T04:57:35;15.25;;;6.72;;
46090;SDS011;31826;53.572;10.170;2023-03-01T05:00:01;14.50;;;6.07;;
46090;SDS011;31826;53.572;10.170;2023-03-01T05:02:45;15.45;;;6.75;;
46090;SDS011;31826;53.572;10.170;2023-03-01T05:05:44;14.67;;;6.40;;
46090;SDS011;31826;53.572;10.170;2023-03-01T05:08:11;13.85;;;6.82;;
46090;SDS011;31826;53.572;10.170;2023-03-01T05:10:42;13.70;;;5.85;;
46090;SDS011;31826;53.572;10.170;2023-03-01T05:13:13;13.82;;;6.20;;
46090;SDS011;31826;53.572;10.170;2023-03-01T05:15:45;12.73;;;6.28;;
46090;SDS011;31826;53.572;10.170;2023-03-01T05:18:19;15.48;;;6.13;;
46090;SDS011;31826;53.572;10.170;2023-03-01T05:20:44;13.15;;;6.32;;
46090;SDS011;31826;53.572;10.170;2023-03-01T05:23:10;16.40;;;6.50;;
46090;SDS011;31826;53.572;10.170;2023-03-01T05:25:36;18.93;;;7.27;;
46090;SDS011;31826;53.572;10.170;2023-03-01T05:28:05;14.63;;;6.78;;
46090;SDS011;31826;53.572;10.170;2023-03-01T05:30:34;12.30;;;5.80;;
46090;SDS011;31826;53.572;10.170;2023-03-01T05:33:00;15.88;;;6.63;;
46090;SDS011;31826;53.572;10.170;2023-03-01T05:35:27;14.35;;;6.50;;
46090;SDS011;31826;53.572;10.170;2023-03-01T05:37:54;14.52;;;6.72;;
46090;SDS011;31826;53.572;10.170;2023-03-01T05:40:21;15.70;;;6.38;;
46090;SDS011;31826;53.572;10.170;2023-03-01T05:42:50;16.35;;;6.35;;
46090;SDS011;31826;53.572;10.170;2023-03-01T05:45:21;13.35;;;6.15;;
46090;SDS011;31826;53.572;10.170;2023-03-01T05:47:50;12.47;;;5.60;;
46090;SDS011;31826;53.572;10.170;2023-03-01T05:50:17;15.02;;;6.57;;
46090;SDS011;31826;53.572;10.170;2023-03-01T05:52:50;16.17;;;6.90;;
46090;SDS011;31826;53.572;10.170;2023-03-01T05:55:28;15.27;;;6.85;;
46090;SDS011;31826;53.572;10.170;2023-03-01T05:57:57;15.15;;;6.40;;
46090;SDS011;31826;53.572;10.170;2023-03-01T06:00:24;16.02;;;6.95;;
46090;SDS011;31826;53.572;10.170;2023-03-01T06:02:50;16.75;;;6.97;;
46090;SDS011;31826;53.572;10.170;2023-03-01T06:05:19;18.13;;;8.10;;
46090;SDS011;31826;53.572;10.170;2023-03-01T06:07:45;17.42;;;7.35;;
46090;SDS011;31826;53.572;10.170;2023-03-01T06:10:11;15.27;;;6.47;;
46090;SDS011;31826;53.572;10.170;2023-03-01T06:12:38;15.37;;;7.03;;
46090;SDS011;31826;53.572;10.170;2023-03-01T06:15:05;16.00;;;7.28;;
46090;SDS011;31826;53.572;10.170;2023-03-01T06:17:33;14.95;;;7.28;;
46090;SDS011;31826;53.572;10.170;2023-03-01T06:20:03;13.83;;;6.73;;
46090;SDS011;31826;53.572;10.170;2023-03-01T06:22:30;15.65;;;6.95;;
46090;SDS011;31826;53.572;10.170;2023-03-01T06:24:56;16.47;;;7.27;;
46090;SDS011;31826;53.572;10.170;2023-03-01T06:27:22;15.17;;;6.13;;
46090;SDS011;31826;53.572;10.170;2023-03-01T06:29:47;16.53;;;6.80;;
46090;SDS011;31826;53.572;10.170;2023-03-01T06:32:14;15.32;;;7.15;;
46090;SDS011;31826;53.572;10.170;2023-03-01T06:34:39;13.85;;;6.50;;
46090;SDS011;31826;53.572;10.170;2023-03-01T06:37:05;14.03;;;6.27;;
46090;SDS011;31826;53.572;10.170;2023-03-01T06:39:32;17.00;;;6.68;;
46090;SDS011;31826;53.572;10.170;2023-03-01T06:41:58;16.98;;;7.05;;
46090;SDS011;31826;53.572;10.170;2023-03-01T06:44:24;14.17;;;6.03;;
46090;SDS011;31826;53.572;10.170;2023-03-01T06:46:50;14.30;;;6.10;;
46090;SDS011;31826;53.572;10.170;2023-03-01T06:49:16;16.58;;;7.25;;
46090;SDS011;31826;53.572;10.170;2023-03-01T06:51:43;15.50;;;6.57;;
46090;SDS011;31826;53.572;10.170;2023-03-01T06:54:09;15.50;;;7.40;;
46090;SDS011;31826;53.572;10.170;2023-03-01T06:56:35;14.45;;;6.70;;
46090;SDS011;31826;53.572;10.170;2023-03-01T06:59:01;14.60;;;6.40;;
46090;SDS011;31826;53.572;10.170;2023-03-01T07:01:28;15.77;;;6.77;;
46090;SDS011;31826;53.572;10.170;2023-03-01T07:03:54;15.70;;;6.10;;
46090;SDS011;31826;53.572;10.170;2023-03-01T07:06:20;12.77;;;6.43;;
46090;SDS011;31826;53.572;10.170;2023-03-01T07:08:47;14.20;;;6.82;;
46090;SDS011;31826;53.572;10.170;2023-03-01T07:11:13;17.13;;;6.50;;
46090;SDS011;31826;53.572;10.170;2023-03-01T07:13:39;14.60;;;6.70;;
46090;SDS011;31826;53.572;10.170;2023-03-01T07:16:05;15.00;;;6.68;;
46090;SDS011;31826;53.572;10.170;2023-03-01T07:18:32;13.70;;;6.72;;
46090;SDS011;31826;53.572;10.170;2023-03-01T07:20:57;14.60;;;6.68;;
46090;SDS011;31826;53.572;10.170;2023-03-01T07:23:23;13.75;;;6.30;;
46090;SDS011;31826;53.572;10.170;2023-03-01T07:25:52;13.90;;;6.40;;
46090;SDS011;31826;53.572;10.170;2023-03-01T07:28:19;11.80;;;6.10;;
46090;SDS011;31826;53.572;10.170;2023-03-01T07:30:45;13.52;;;6.20;;
46090;SDS011;31826;53.572;10.170;2023-03-01T07:33:11;18.27;;;6.50;;
46090;SDS011;31826;53.572;10.170;2023-03-01T07:35:37;14.93;;;6.67;;
46090;SDS011;31826;53.572;10.170;2023-03-01T07:38:02;11.67;;;5.97;;
46090;SDS011;31826;53.572;10.170;2023-03-01T07:40:28;17.17;;;6.83;;
46090;SDS011;31826;53.572;10.170;2023-03-01T07:42:57;14.93;;;5.93;;
46090;SDS011;31826;53.572;10.170;2023-03-01T07:45:28;13.15;;;6.07;;
46090;SDS011;31826;53.572;10.170;2023-03-01T07:47:54;15.93;;;7.05;;
46090;SDS011;31826;53.572;10.170;2023-03-01T07:50:21;14.10;;;6.57;;
46090;SDS011;31826;53.572;10.170;2023-03-01T07:52:48;15.25;;;6.45;;
46090;SDS011;31826;53.572;10.170;2023-03-01T07:55:15;16.73;;;7.28;;
46090;SDS011;31826;53.572;10.170;2023-03-01T07:57:41;15.82;;;6.63;;
46090;SDS011;31826;53.572;10.170;2023-03-01T08:00:07;15.23;;;6.57;;
46090;SDS011;31826;53.572;10.170;2023-03-01T08:02:36;15.50;;;6.70;;
46090;SDS011;31826;53.572;10.170;2023-03-01T08:05:02;18.33;;;9.77;;
46090;SDS011;31826;53.572;10.170;2023-03-01T08:07:28;13.68;;;7.95;;
46090;SDS011;31826;53.572;10.170;2023-03-01T08:09:53;14.45;;;7.90;;
46090;SDS011;31826;53.572;10.170;2023-03-01T08:12:19;14.98;;;8.02;;
46090;SDS011;31826;53.572;10.170;2023-03-01T08:14:45;19.38;;;7.05;;
46090;SDS011;31826;53.572;10.170;2023-03-01T08:17:13;16.15;;;8.82;;
46090;SDS011;31826;53.572;10.170;2023-03-01T08:19:39;15.40;;;7.43;;
46090;SDS011;31826;53.572;10.170;2023-03-01T08:22:05;49.30;;;22.00;;
46090;SDS011;31826;53.572;10.170;2023-03-01T08:24:30;17.90;;;7.87;;
46090;SDS011;31826;53.572;10.170;2023-03-01T08:26:56;16.23;;;7.57;;
46090;SDS011;31826;53.572;10.170;2023-03-01T08:29:22;17.23;;;7.47;;
46090;SDS011;31826;53.572;10.170;2023-03-01T08:31:49;15.50;;;6.90;;
46090;SDS011;31826;53.572;10.170;2023-03-01T08:34:17;14.80;;;6.97;;
46090;SDS011;31826;53.572;10.170;2023-03-01T08:36:44;13.50;;;6.32;;
46090;SDS011;31826;53.572;10.170;2023-03-01T08:39:11;16.25;;;6.93;;
46090;SDS011;31826;53.572;10.170;2023-03-01T08:41:39;17.85;;;7.60;;
46090;SDS011;31826;53.572;10.170;2023-03-01T08:44:05;15.65;;;8.20;;
46090;SDS011;31826;53.572;10.170;2023-03-01T08:46:32;14.90;;;7.68;;
46090;SDS011;31826;53.572;10.170;2023-03-01T08:49:03;15.75;;;7.40;;
46090;SDS011;31826;53.572;10.170;2023-03-01T08:51:33;19.85;;;7.47;;
46090;SDS011;31826;53.572;10.170;2023-03-01T08:54:20;18.47;;;9.87;;
46090;SDS011;31826;53.572;10.170;2023-03-01T08:56:49;17.10;;;8.65;;
46090;SDS011;31826;53.572;10.170;2023-03-01T08:59:16;16.90;;;7.65;;
46090;SDS011;31826;53.572;10.170;2023-03-01T09:01:42;17.10;;;8.02;;
46090;SDS011;31826;53.572;10.170;2023-03-01T09:04:08;14.17;;;7.67;;
46090;SDS011;31826;53.572;10.170;2023-03-01T09:06:35;15.77;;;7.23;;
46090;SDS011;31826;53.572;10.170;2023-03-01T09:09:02;15.55;;;7.13;;
46090;SDS011;31826;53.572;10.170;2023-03-01T09:11:29;15.85;;;7.38;;
46090;SDS011;31826;53.572;10.170;2023-03-01T09:13:56;17.77;;;7.20;;
46090;SDS011;31826;53.572;10.170;2023-03-01T09:16:22;15.50;;;7.43;;
46090;SDS011;31826;53.572;10.170;2023-03-01T09:18:49;16.05;;;7.20;;
46090;SDS011;31826;53.572;10.170;2023-03-01T09:21:17;14.10;;;6.55;;
46090;SDS011;31826;53.572;10.170;2023-03-01T09:23:44;14.70;;;7.18;;
46090;SDS011;31826;53.572;10.170;2023-03-01T09:26:13;13.45;;;6.85;;
46090;SDS011;31826;53.572;10.170;2023-03-01T09:28:47;13.60;;;6.97;;
46090;SDS011;31826;53.572;10.170;2023-03-01T09:31:15;14.77;;;7.13;;
46090;SDS011;31826;53.572;10.170;2023-03-01T09:33:45;13.85;;;6.80;;
46090;SDS011;31826;53.572;10.170;2023-03-01T09:36:13;16.02;;;7.10;;
46090;SDS011;31826;53.572;10.170;2023-03-01T09:38:41;17.67;;;6.57;;
46090;SDS011;31826;53.572;10.170;2023-03-01T09:41:11;17.33;;;7.73;;
46090;SDS011;31826;53.572;10.170;2023-03-01T09:43:50;16.23;;;7.03;;
46090;SDS011;31826;53.572;10.170;2023-03-01T09:46:21;16.92;;;7.72;;
46090;SDS011;31826;53.572;10.170;2023-03-01T09:48:53;15.63;;;7.28;;
46090;SDS011;31826;53.572;10.170;2023-03-01T09:51:30;17.15;;;7.80;;
46090;SDS011;31826;53.572;10.170;2023-03-01T09:53:57;14.82;;;7.50;;
46090;SDS011;31826;53.572;10.170;2023-03-01T09:59:04;15.63;;;7.40;;
46090;SDS011;31826;53.572;10.170;2023-03-01T10:04:11;13.65;;;6.47;;
46090;SDS011;31826;53.572;10.170;2023-03-01T10:07:07;16.17;;;7.25;;
46090;SDS011;31826;53.572;10.170;2023-03-01T10:09:43;14.18;;;6.35;;
46090;SDS011;31826;53.572;10.170;2023-03-01T10:12:11;13.40;;;6.40;;
46090;SDS011;31826;53.572;10.170;2023-03-01T10:19:46;13.98;;;6.40;;
46090;SDS011;31826;53.572;10.170;2023-03-01T10:22:25;12.73;;;6.03;;
46090;SDS011;31826;53.572;10.170;2023-03-01T10:24:53;12.23;;;5.87;;
46090;SDS011;31826;53.572;10.170;2023-03-01T10:27:23;13.40;;;6.50;;
46090;SDS011;31826;53.572;10.170;2023-03-01T10:32:32;12.23;;;6.47;;
46090;SDS011;31826;53.572;10.170;2023-03-01T10:34:57;13.70;;;5.75;;
46090;SDS011;31826;53.572;10.170;2023-03-01T10:37:23;16.70;;;5.90;;
46090;SDS011;31826;53.572;10.170;2023-03-01T10:40:01;13.73;;;6.15;;
46090;SDS011;31826;53.572;10.170;2023-03-01T10:42:38;12.85;;;6.30;;
46090;SDS011;31826;53.572;10.170;2023-03-01T10:50:47;14.23;;;5.85;;
46090;SDS011;31826;53.572;10.170;2023-03-01T10:53:25;15.07;;;5.78;;
46090;SDS011;31826;53.572;10.170;2023-03-01T10:56:04;13.13;;;5.13;;
46090;SDS011;31826;53.572;10.170;2023-03-01T10:58:35;12.02;;;6.18;;
46090;SDS011;31826;53.572;10.170;2023-03-01T11:01:08;12.68;;;5.68;;
46090;SDS011;31826;53.572;10.170;2023-03-01T11:04:13;11.02;;;5.18;;
46090;SDS011;31826;53.572;10.170;2023-03-01T11:06:40;11.93;;;5.30;;
46090;SDS011;31826;53.572;10.170;2023-03-01T11:09:17;12.02;;;5.40;;
46090;SDS011;31826;53.572;10.170;2023-03-01T11:11:45;12.43;;;5.57;;
46090;SDS011;31826;53.572;10.170;2023-03-01T11:14:19;10.75;;;5.10;;
46090;SDS011;31826;53.572;10.170;2023-03-01T11:16:47;11.43;;;5.00;;
46090;SDS011;31826;53.572;10.170;2023-03-01T11:19:23;11.80;;;5.00;;
46090;SDS011;31826;53.572;10.170;2023-03-01T11:24:47;12.63;;;5.28;;
46090;SDS011;31826;53.572;10.170;2023-03-01T11:30:02;13.10;;;5.80;;
46090;SDS011;31826;53.572;10.170;2023-03-01T11:32:45;12.73;;;5.10;;
46090;SDS011;31826;53.572;10.170;2023-03-01T11:35:19;11.40;;;5.18;;
46090;SDS011;31826;53.572;10.170;2023-03-01T11:55:07;10.35;;;4.72;;
46090;SDS011;31826;53.572;10.170;2023-03-01T12:03:28;9.60;;;4.53;;
46090;SDS011;31826;53.572;10.170;2023-03-01T12:06:06;10.67;;;4.47;;
46090;SDS011;31826;53.572;10.170;2023-03-01T12:20:14;10.30;;;4.75;;
46090;SDS011;31826;53.572;10.170;2023-03-01T12:22:44;10.10;;;5.00;;
46090;SDS011;31826;53.572;10.170;2023-03-01T12:25:16;12.60;;;4.85;;
46090;SDS011;31826;53.572;10.170;2023-03-01T12:35:58;10.80;;;4.57;;
46090;SDS011;31826;53.572;10.170;2023-03-01T12:38:50;10.32;;;4.70;;
46090;SDS011;31826;53.572;10.170;2023-03-01T12:44:11;8.43;;;4.27;;
46090;SDS011;31826;53.572;10.170;2023-03-01T12:46:44;9.25;;;4.38;;
46090;SDS011;31826;53.572;10.170;2023-03-01T12:49:31;9.10;;;3.95;;
46090;SDS011;31826;53.572;10.170;2023-03-01T12:52:10;8.20;;;3.53;;
46090;SDS011;31826;53.572;10.170;2023-03-01T12:54:40;6.70;;;3.35;;
46090;SDS011;31826;53.572;10.170;2023-03-01T13:02:54;7.40;;;2.97;;
46090;SDS011;31826;53.572;10.170;2023-03-01T13:08:27;7.18;;;3.22;;
46090;SDS011;31826;53.572;10.170;2023-03-01T13:11:19;6.90;;;3.17;;
46090;SDS011;31826;53.572;10.170;2023-03-01T13:13:46;8.60;;;3.03;;
46090;SDS011;31826;53.572;10.170;2023-03-01T13:19:12;8.35;;;2.88;;
46090;SDS011;31826;53.572;10.170;2023-03-01T13:21:49;6.97;;;2.90;;
46090;SDS011;31826;53.572;10.170;2023-03-01T13:24:26;7.20;;;3.07;;
46090;SDS011;31826;53.572;10.170;2023-03-01T13:29:48;6.35;;;2.80;;
46090;SDS011;31826;53.572;10.170;2023-03-01T13:34:49;5.97;;;2.92;;
46090;SDS011;31826;53.572;10.170;2023-03-01T13:37:32;6.82;;;2.63;;
46090;SDS011;31826;53.572;10.170;2023-03-01T13:42:49;6.70;;;2.83;;
46090;SDS011;31826;53.572;10.170;2023-03-01T13:45:21;6.03;;;2.95;;
46090;SDS011;31826;53.572;10.170;2023-03-01T13:48:25;6.28;;;2.63;;
46090;SDS011;31826;53.572;10.170;2023-03-01T13:50:58;6.18;;;2.70;;
46090;SDS011;31826;53.572;10.170;2023-03-01T13:53:31;7.40;;;3.22;;
46090;SDS011;31826;53.572;10.170;2023-03-01T13:56:02;6.50;;;3.20;;
46090;SDS011;31826;53.572;10.170;2023-03-01T13:58:46;5.68;;;2.50;;
46090;SDS011;31826;53.572;10.170;2023-03-01T14:01:24;8.10;;;3.05;;
46090;SDS011;31826;53.572;10.170;2023-03-01T14:03:52;7.18;;;3.33;;
46090;SDS011;31826;53.572;10.170;2023-03-01T14:06:23;7.60;;;3.05;;
46090;SDS011;31826;53.572;10.170;2023-03-01T14:08:59;7.03;;;3.00;;
46090;SDS011;31826;53.572;10.170;2023-03-01T14:11:35;7.28;;;3.00;;
46090;SDS011;31826;53.572;10.170;2023-03-01T14:17:35;7.20;;;2.70;;
46090;SDS011;31826;53.572;10.170;2023-03-01T14:20:20;4.93;;;2.23;;
46090;SDS011;31826;53.572;10.170;2023-03-01T14:22:55;6.55;;;2.90;;
46090;SDS011;31826;53.572;10.170;2023-03-01T14:25:24;5.72;;;2.60;;
46090;SDS011;31826;53.572;10.170;2023-03-01T14:30:27;3.65;;;1.80;;
46090;SDS011;31826;53.572;10.170;2023-03-01T14:33:01;3.97;;;2.00;;
46090;SDS011;31826;53.572;10.170;2023-03-01T14:35:33;7.03;;;2.67;;
46090;SDS011;31826;53.572;10.170;2023-03-01T14:38:01;6.60;;;2.80;;
46090;SDS011;31826;53.572;10.170;2023-03-01T14:40:29;9.00;;;3.88;;
46090;SDS011;31826;53.572;10.170;2023-03-01T14:42:58;15.95;;;3.30;;
46090;SDS011;31826;53.572;10.170;2023-03-01T14:45:27;9.63;;;3.40;;
46090;SDS011;31826;53.572;10.170;2023-03-01T14:47:58;7.60;;;3.00;;
46090;SDS011;31826;53.572;10.170;2023-03-01T14:50:28;9.07;;;3.90;;
46090;SDS011;31826;53.572;10.170;2023-03-01T14:53:05;8.57;;;3.65;;
46090;SDS011;31826;53.572;10.170;2023-03-01T14:55:34;8.57;;;3.60;;
46090;SDS011;31826;53.572;10.170;2023-03-01T14:58:04;12.85;;;3.90;;
46090;SDS011;31826;53.572;10.170;2023-03-01T15:00:34;8.07;;;3.38;;
46090;SDS011;31826;53.572;10.170;2023-03-01T15:03:05;8.05;;;3.22;;
46090;SDS011;31826;53.572;10.170;2023-03-01T15:05:52;7.60;;;3.53;;
46090;SDS011;31826;53.572;10.170;2023-03-01T15:08:22;8.07;;;3.70;;
46090;SDS011;31826;53.572;10.170;2023-03-01T15:11:04;9.30;;;3.45;;
46090;SDS011;31826;53.572;10.170;2023-03-01T15:13:41;7.28;;;3.10;;
46090;SDS011;31826;53.572;10.170;2023-03-01T15:16:09;7.57;;;3.20;;
46090;SDS011;31826;53.572;10.170;2023-03-01T15:18:49;7.10;;;3.10;;
46090;SDS011;31826;53.572;10.170;2023-03-01T15:21:31;6.65;;;3.05;;
46090;SDS011;31826;53.572;10.170;2023-03-01T15:24:04;8.77;;;3.53;;
46090;SDS011;31826;53.572;10.170;2023-03-01T15:26:53;8.05;;;3.10;;
46090;SDS011;31826;53.572;10.170;2023-03-01T15:29:21;8.50;;;3.13;;
46090;SDS011;31826;53.572;10.170;2023-03-01T15:31:58;6.68;;;3.22;;
46090;SDS011;31826;53.572;10.170;2023-03-01T15:34:25;6.35;;;2.97;;
46090;SDS011;31826;53.572;10.170;2023-03-01T15:36:56;7.15;;;3.47;;
46090;SDS011;31826;53.572;10.170;2023-03-01T15:39:30;8.02;;;3.35;;
46090;SDS011;31826;53.572;10.170;2023-03-01T15:41:56;8.65;;;3.60;;
46090;SDS011;31826;53.572;10.170;2023-03-01T15:44:29;8.10;;;3.65;;
46090;SDS011;31826;53.572;10.170;2023-03-01T15:46:57;7.72;;;3.47;;
46090;SDS011;31826;53.572;10.170;2023-03-01T15:49:25;7.10;;;3.00;;
46090;SDS011;31826;53.572;10.170;2023-03-01T15:52:12;9.10;;;3.60;;
46090;SDS011;31826;53.572;10.170;2023-03-01T15:54:53;9.13;;;3.38;;
46090;SDS011;31826;53.572;10.170;2023-03-01T15:57:26;8.80;;;3.92;;
46090;SDS011;31826;53.572;10.170;2023-03-01T15:59:52;8.73;;;3.95;;
46090;SDS011;31826;53.572;10.170;2023-03-01T16:02:17;8.90;;;4.00;;
46090;SDS011;31826;53.572;10.170;2023-03-01T16:04:46;8.15;;;3.55;;
46090;SDS011;31826;53.572;10.170;2023-03-01T16:07:13;8.83;;;3.77;;
46090;SDS011;31826;53.572;10.170;2023-03-01T16:09:39;10.05;;;4.00;;
46090;SDS011;31826;53.572;10.170;2023-03-01T16:12:05;8.35;;;3.92;;
46090;SDS011;31826;53.572;10.170;2023-03-01T16:14:37;8.00;;;3.58;;
46090;SDS011;31826;53.572;10.170;2023-03-01T16:17:03;17.35;;;7.72;;
46090;SDS011;31826;53.572;10.170;2023-03-01T16:19:29;8.60;;;3.97;;
46090;SDS011;31826;53.572;10.170;2023-03-01T16:21:54;8.77;;;3.70;;